createdAt,value
2017-09-30T00:01:00.648Z,7.57
2017-09-30T00:03:31.103Z,6.70
2017-09-30T00:06:00.875Z,7.17
2017-09-30T00:08:31.726Z,6.70
2017-09-30T00:11:02.240Z,6.80
2017-09-30T00:13:32.229Z,6.78
2017-09-30T00:16:02.376Z,6.57
2017-09-30T00:18:33.481Z,7.55
2017-09-30T00:21:03.535Z,8.50
2017-09-30T00:23:33.571Z,7.72
2017-09-30T00:26:03.323Z,7.00
2017-09-30T00:28:33.201Z,6.60
2017-09-30T00:31:03.710Z,9.60
2017-09-30T00:33:33.958Z,7.95
2017-09-30T00:36:03.746Z,9.20
2017-09-30T00:38:34.087Z,8.00
2017-09-30T00:41:03.917Z,7.22
2017-09-30T00:43:35.704Z,7.80
2017-09-30T00:46:06.478Z,8.03
2017-09-30T00:48:36.547Z,7.72
2017-09-30T00:51:06.675Z,7.60
2017-09-30T00:53:36.753Z,7.90
2017-09-30T00:56:07.344Z,7.37
2017-09-30T00:58:37.922Z,7.43
2017-09-30T01:01:08.523Z,8.43
2017-09-30T01:03:38.906Z,8.20
2017-09-30T01:06:08.915Z,7.82
2017-09-30T01:08:38.976Z,8.20
2017-09-30T01:11:08.898Z,8.50
2017-09-30T01:13:39.042Z,7.87
2017-09-30T01:16:09.532Z,8.73
2017-09-30T01:18:40.095Z,7.68
2017-09-30T01:21:10.015Z,8.50
2017-09-30T01:23:40.358Z,8.10
2017-09-30T01:26:10.373Z,8.77
2017-09-30T01:28:40.963Z,8.20
2017-09-30T01:31:10.706Z,8.55
2017-09-30T01:33:49.201Z,7.90
2017-09-30T01:36:19.923Z,8.30
2017-09-30T01:38:50.039Z,8.25
2017-09-30T01:41:19.802Z,8.30
2017-09-30T01:43:49.512Z,8.40
2017-09-30T01:46:19.307Z,8.80
2017-09-30T01:48:49.668Z,8.90
2017-09-30T01:51:20.436Z,8.88
2017-09-30T01:53:50.543Z,8.02
2017-09-30T01:56:21.802Z,7.60
2017-09-30T01:58:51.821Z,8.43
2017-09-30T02:01:22.406Z,8.07
2017-09-30T02:03:52.311Z,8.30
2017-09-30T02:06:22.578Z,8.00
2017-09-30T02:08:53.149Z,8.00
2017-09-30T02:11:23.123Z,8.30
2017-09-30T02:13:53.250Z,8.00
2017-09-30T02:16:23.647Z,7.35
2017-09-30T02:18:53.990Z,8.00
2017-09-30T02:21:25.141Z,8.10
2017-09-30T02:23:56.072Z,8.52
2017-09-30T02:26:26.863Z,8.50
2017-09-30T02:28:57.375Z,8.45
2017-09-30T02:31:27.628Z,8.40
2017-09-30T02:33:57.743Z,8.30
2017-09-30T02:36:28.335Z,8.15
2017-09-30T02:38:58.326Z,7.82
2017-09-30T02:41:28.785Z,8.50
2017-09-30T02:43:58.850Z,7.67
2017-09-30T02:46:28.598Z,8.80
2017-09-30T02:48:59.693Z,8.47
2017-09-30T02:51:29.275Z,8.02
2017-09-30T02:53:58.860Z,8.05
2017-09-30T02:56:28.416Z,8.60
2017-09-30T02:58:57.975Z,8.50
2017-09-30T03:01:28.491Z,8.52
2017-09-30T03:03:59.231Z,8.27
2017-09-30T03:06:29.228Z,8.45
2017-09-30T03:08:59.807Z,7.87
2017-09-30T03:11:29.612Z,7.47
2017-09-30T03:13:59.319Z,7.80
2017-09-30T03:16:28.929Z,8.80
2017-09-30T03:18:58.849Z,8.43
2017-09-30T03:21:28.990Z,8.30
2017-09-30T03:23:58.503Z,7.05
2017-09-30T03:26:41.020Z,7.32
2017-09-30T03:29:11.486Z,6.50
2017-09-30T03:31:42.008Z,7.37
2017-09-30T03:34:12.575Z,8.00
2017-09-30T03:36:42.271Z,7.70
2017-09-30T03:39:12.262Z,8.45
2017-09-30T03:41:42.916Z,7.18
2017-09-30T03:44:13.214Z,7.93
2017-09-30T03:46:44.171Z,8.00
2017-09-30T03:49:14.260Z,8.10
2017-09-30T03:51:44.174Z,8.70
2017-09-30T03:54:14.001Z,8.15
2017-09-30T03:56:44.249Z,8.52
2017-09-30T03:59:14.132Z,7.40
2017-09-30T04:01:44.307Z,7.97
2017-09-30T04:04:14.245Z,7.50
2017-09-30T04:06:43.799Z,8.05
2017-09-30T04:09:14.104Z,7.10
2017-09-30T04:11:44.879Z,7.40
2017-09-30T04:14:14.715Z,7.22
2017-09-30T04:16:44.595Z,7.30
2017-09-30T04:19:14.928Z,6.68
2017-09-30T04:21:46.139Z,7.57
2017-09-30T04:24:20.463Z,7.07
2017-09-30T04:26:50.791Z,7.00
2017-09-30T04:29:21.583Z,6.32
2017-09-30T04:31:51.146Z,7.18
2017-09-30T04:34:21.148Z,6.83
2017-09-30T04:36:51.974Z,6.80
2017-09-30T04:39:22.036Z,7.32
2017-09-30T04:41:52.382Z,6.90
2017-09-30T04:44:25.434Z,7.20
2017-09-30T04:46:56.435Z,7.80
2017-09-30T04:49:26.374Z,8.10
2017-09-30T04:51:56.995Z,7.70
2017-09-30T04:54:28.383Z,7.95
2017-09-30T04:56:58.059Z,7.65
2017-09-30T04:59:27.774Z,8.57
2017-09-30T05:01:57.959Z,7.53
2017-09-30T05:04:27.552Z,8.32
2017-09-30T05:06:57.187Z,8.00
2017-09-30T05:09:27.635Z,8.55
2017-09-30T05:11:57.462Z,7.57
2017-09-30T05:14:27.815Z,8.27
2017-09-30T05:16:57.672Z,8.30
2017-09-30T05:19:28.644Z,8.27
2017-09-30T05:21:59.326Z,8.83
2017-09-30T05:24:28.863Z,8.23
2017-09-30T05:27:08.214Z,8.30
2017-09-30T05:29:41.664Z,9.65
2017-09-30T05:32:11.475Z,9.45
2017-09-30T05:34:41.534Z,8.80
2017-09-30T05:37:11.864Z,8.40
2017-09-30T05:39:44.595Z,9.30
2017-09-30T05:42:14.160Z,9.23
2017-09-30T05:44:44.627Z,9.10
2017-09-30T05:50:26.002Z,9.30
2017-09-30T05:52:55.632Z,8.93
2017-09-30T05:55:25.203Z,9.60
2017-09-30T06:01:01.804Z,10.00
2017-09-30T06:03:31.715Z,9.50
2017-09-30T06:06:01.966Z,10.20
2017-09-30T06:08:31.860Z,9.75
2017-09-30T06:11:07.732Z,9.60
2017-09-30T06:13:37.973Z,10.25
2017-09-30T06:16:07.782Z,9.50
2017-09-30T06:18:37.965Z,9.60
2017-09-30T06:21:07.662Z,9.73
2017-09-30T06:23:37.384Z,10.50
2017-09-30T06:26:06.964Z,9.70
2017-09-30T06:28:37.310Z,9.50
2017-09-30T06:31:07.608Z,9.40
2017-09-30T06:33:45.648Z,7.80
2017-09-30T06:36:16.055Z,7.62
2017-09-30T06:38:45.645Z,7.30
2017-09-30T06:41:17.060Z,6.20
2017-09-30T06:43:54.102Z,6.00
2017-09-30T06:46:31.939Z,5.20
2017-09-30T06:49:03.666Z,5.40
2017-09-30T06:51:35.480Z,5.45
2017-09-30T06:54:08.629Z,4.70
2017-09-30T06:56:39.439Z,4.60
2017-09-30T06:59:09.974Z,4.37
2017-09-30T07:01:39.694Z,4.70
2017-09-30T07:07:13.213Z,4.78
2017-09-30T07:09:45.550Z,4.90
2017-09-30T07:12:15.388Z,4.90
2017-09-30T07:16:06.093Z,5.12
2017-09-30T07:18:56.060Z,4.50
2017-09-30T07:21:26.656Z,4.30
2017-09-30T07:23:56.236Z,5.37
2017-09-30T07:26:26.613Z,4.95
2017-09-30T07:28:57.642Z,4.93
2017-09-30T07:31:34.265Z,4.70
2017-09-30T07:34:04.326Z,4.47
2017-09-30T07:36:37.654Z,4.40
2017-09-30T07:39:09.054Z,4.30
2017-09-30T07:41:39.539Z,4.78
2017-09-30T07:44:20.851Z,4.70
2017-09-30T07:46:53.228Z,4.55
2017-09-30T07:49:23.639Z,4.30
2017-09-30T07:51:54.599Z,4.93
2017-09-30T07:54:25.312Z,4.32
2017-09-30T07:56:55.031Z,4.70
2017-09-30T07:59:33.071Z,4.40
2017-09-30T08:02:03.103Z,4.90
2017-09-30T08:04:33.100Z,4.60
2017-09-30T08:07:03.282Z,4.90
2017-09-30T08:09:32.999Z,4.00
2017-09-30T08:12:02.684Z,4.20
2017-09-30T08:14:32.450Z,3.97
2017-09-30T08:17:24.640Z,4.82
2017-09-30T08:20:03.432Z,4.72
2017-09-30T08:22:35.992Z,4.30
2017-09-30T08:25:05.787Z,4.95
2017-09-30T08:27:43.437Z,3.90
2017-09-30T08:30:15.506Z,3.57
2017-09-30T08:32:45.681Z,4.70
2017-09-30T08:35:15.239Z,4.65
2017-09-30T08:38:15.671Z,5.72
2017-09-30T08:40:45.469Z,5.00
2017-09-30T08:43:16.378Z,5.10
2017-09-30T08:45:46.683Z,5.22
2017-09-30T08:51:16.540Z,5.68
2017-09-30T08:53:46.562Z,5.30
2017-09-30T08:56:16.374Z,5.23
2017-09-30T08:58:47.423Z,5.20
2017-09-30T09:01:17.214Z,5.68
2017-09-30T09:03:47.454Z,5.43
2017-09-30T09:06:17.235Z,5.30
2017-09-30T09:11:25.323Z,4.90
2017-09-30T09:13:55.958Z,4.93
2017-09-30T09:16:26.331Z,5.53
2017-09-30T09:18:56.364Z,5.10
2017-09-30T09:21:27.000Z,5.28
2017-09-30T09:23:58.638Z,5.57
2017-09-30T09:26:28.896Z,5.30
2017-09-30T09:28:59.590Z,5.35
2017-09-30T09:31:29.255Z,6.00
2017-09-30T09:34:03.922Z,5.10
2017-09-30T09:36:41.403Z,5.00
2017-09-30T09:39:16.456Z,5.50
2017-09-30T09:41:46.559Z,5.40
2017-09-30T09:47:14.577Z,5.78
2017-09-30T09:49:45.588Z,5.50
2017-09-30T09:52:15.147Z,5.50
2017-09-30T09:54:46.012Z,5.78
2017-09-30T09:57:15.862Z,5.47
2017-09-30T10:03:00.050Z,5.72
2017-09-30T10:05:30.299Z,6.20
2017-09-30T10:08:06.059Z,6.22
2017-09-30T10:10:44.905Z,6.05
2017-09-30T10:13:18.969Z,6.15
2017-09-30T10:15:50.076Z,6.20
2017-09-30T10:18:20.493Z,6.75
2017-09-30T10:21:02.151Z,6.50
2017-09-30T10:23:33.387Z,5.82
2017-09-30T10:26:04.465Z,6.03
2017-09-30T10:28:34.643Z,5.60
2017-09-30T10:31:05.247Z,6.10
2017-09-30T10:33:35.238Z,6.30
2017-09-30T10:36:05.495Z,6.50
2017-09-30T10:38:35.212Z,6.10
2017-09-30T10:41:06.034Z,6.50
2017-09-30T10:43:36.779Z,5.80
2017-09-30T10:46:06.488Z,6.75
2017-09-30T10:48:38.042Z,5.60
2017-09-30T10:51:11.439Z,6.03
2017-09-30T10:53:43.922Z,6.28
2017-09-30T10:56:15.435Z,5.60
2017-09-30T10:58:50.677Z,6.20
2017-09-30T11:01:22.471Z,5.18
2017-09-30T11:03:52.557Z,5.65
2017-09-30T11:06:24.026Z,5.15
2017-09-30T11:08:55.359Z,5.60
2017-09-30T11:11:24.995Z,5.50
2017-09-30T11:13:56.802Z,6.05
2017-09-30T11:16:27.159Z,5.90
2017-09-30T11:18:58.332Z,6.28
2017-09-30T11:21:28.810Z,6.62
2017-09-30T11:23:58.564Z,6.67
2017-09-30T11:26:33.852Z,6.60
2017-09-30T11:29:16.271Z,6.93
2017-09-30T11:31:50.763Z,6.10
2017-09-30T11:34:23.548Z,6.15
2017-09-30T11:39:54.662Z,5.93
2017-09-30T11:42:27.519Z,6.60
2017-09-30T11:44:57.223Z,5.60
2017-09-30T11:47:28.075Z,5.60
2017-09-30T11:49:57.871Z,5.70
2017-09-30T11:52:27.479Z,6.20
2017-09-30T11:54:58.954Z,5.70
2017-09-30T11:57:29.227Z,5.32
2017-09-30T12:00:01.874Z,5.70
2017-09-30T12:02:35.361Z,5.10
2017-09-30T12:05:06.519Z,5.72
2017-09-30T12:07:41.485Z,5.20
2017-09-30T12:10:16.336Z,5.43
2017-09-30T12:12:49.739Z,5.80
2017-09-30T12:15:21.800Z,6.10
2017-09-30T12:17:53.089Z,5.70
2017-09-30T12:20:24.883Z,6.50
2017-09-30T12:22:55.764Z,6.30
2017-09-30T12:25:27.919Z,6.10
2017-09-30T12:30:59.754Z,6.10
2017-09-30T12:33:55.031Z,6.40
2017-09-30T12:36:27.571Z,6.75
2017-09-30T12:38:59.090Z,6.57
2017-09-30T12:41:29.418Z,7.00
2017-09-30T12:43:59.154Z,6.95
2017-09-30T12:46:29.505Z,7.30
2017-09-30T12:56:16.665Z,7.15
2017-09-30T12:58:47.165Z,7.55
2017-09-30T13:07:44.701Z,6.78
2017-09-30T13:10:15.881Z,7.90
2017-09-30T13:12:48.595Z,9.00
2017-09-30T13:15:26.918Z,7.65
2017-09-30T13:17:57.570Z,8.30
2017-09-30T13:20:27.931Z,8.20
2017-09-30T13:22:57.815Z,8.15
2017-09-30T13:25:27.635Z,8.90
2017-09-30T13:27:57.691Z,9.77
2017-09-30T13:30:30.422Z,9.77
2017-09-30T13:33:01.830Z,9.52
2017-09-30T13:35:31.606Z,10.00
2017-09-30T13:38:01.337Z,9.97
2017-09-30T13:40:58.609Z,9.70
2017-09-30T13:43:40.459Z,8.93
2017-09-30T13:46:14.204Z,9.00
2017-09-30T13:48:44.027Z,8.90
2017-09-30T13:51:13.585Z,9.55
2017-09-30T13:54:00.737Z,8.50
2017-09-30T13:56:30.528Z,8.20
2017-09-30T13:59:10.221Z,8.55
2017-09-30T14:01:40.101Z,8.00
2017-09-30T14:04:11.248Z,8.68
2017-09-30T14:06:51.682Z,8.43
2017-09-30T14:09:22.746Z,8.70
2017-09-30T14:11:57.697Z,8.63
2017-09-30T14:14:27.845Z,8.00
2017-09-30T14:16:58.460Z,7.95
2017-09-30T14:19:31.602Z,7.65
2017-09-30T14:22:02.041Z,7.80
2017-09-30T14:24:31.779Z,8.00
2017-09-30T14:27:02.137Z,7.78
2017-09-30T14:29:36.008Z,7.60
2017-09-30T14:32:07.629Z,8.93
2017-09-30T14:34:37.679Z,8.43
2017-09-30T14:37:09.115Z,8.20
2017-09-30T14:39:40.507Z,9.15
2017-09-30T14:42:11.419Z,9.65
2017-09-30T14:44:43.918Z,10.43
2017-09-30T14:53:21.366Z,10.02
2017-09-30T14:59:12.251Z,10.55
2017-09-30T15:01:42.928Z,11.40
2017-09-30T15:04:19.386Z,12.37
2017-09-30T15:07:01.093Z,11.40
2017-09-30T15:09:36.163Z,11.10
2017-09-30T15:15:10.547Z,11.37
2017-09-30T15:17:42.223Z,12.60
2017-09-30T15:20:20.861Z,11.77
2017-09-30T15:22:51.606Z,12.05
2017-09-30T15:25:21.770Z,12.40
2017-09-30T15:27:56.190Z,12.80
2017-09-30T15:30:31.106Z,12.20
2017-09-30T15:33:04.700Z,12.37
2017-09-30T15:35:35.161Z,12.73
2017-09-30T15:38:05.196Z,11.68
2017-09-30T15:40:55.082Z,11.93
2017-09-30T15:43:26.149Z,11.05
2017-09-30T15:45:59.263Z,11.68
2017-09-30T15:48:33.193Z,11.00
2017-09-30T15:51:04.332Z,10.57
2017-09-30T15:56:36.354Z,10.05
2017-09-30T15:59:12.308Z,10.60
2017-09-30T16:01:43.252Z,10.50
2017-09-30T16:04:15.621Z,10.38
2017-09-30T16:06:45.319Z,10.20
2017-09-30T16:09:15.171Z,10.07
2017-09-30T16:11:45.110Z,10.70
2017-09-30T16:14:24.974Z,9.85
2017-09-30T16:16:55.674Z,9.80
2017-09-30T16:19:25.540Z,10.23
2017-09-30T16:21:56.728Z,10.57
2017-09-30T16:27:21.868Z,10.50
2017-09-30T16:29:54.639Z,10.23
2017-09-30T16:32:33.969Z,10.75
2017-09-30T16:35:04.071Z,11.70
2017-09-30T16:37:40.435Z,11.55
2017-09-30T16:40:11.644Z,12.52
2017-09-30T16:43:07.183Z,12.70
2017-09-30T16:45:36.838Z,12.25
2017-09-30T16:48:10.395Z,12.07
2017-09-30T16:50:45.231Z,12.35
2017-09-30T16:53:27.462Z,11.95
2017-09-30T16:55:57.319Z,11.70
2017-09-30T16:58:28.650Z,12.05
2017-09-30T17:04:03.881Z,11.90
2017-09-30T17:06:34.522Z,12.10
2017-09-30T17:12:14.099Z,14.45
2017-09-30T17:14:47.626Z,18.00
2017-09-30T17:17:20.415Z,19.62
2017-09-30T17:20:12.899Z,11.93
2017-09-30T17:22:48.538Z,12.73
2017-09-30T17:25:20.029Z,12.10
2017-09-30T17:27:52.261Z,10.68
2017-09-30T17:30:29.676Z,10.55
2017-09-30T17:34:40.994Z,12.10
2017-09-30T17:37:17.235Z,10.63
2017-09-30T17:39:48.352Z,10.80
2017-09-30T17:42:20.225Z,10.25
2017-09-30T17:44:57.359Z,10.77
2017-09-30T17:48:01.980Z,11.60
2017-09-30T17:50:36.565Z,11.02
2017-09-30T17:53:08.174Z,10.57
2017-09-30T17:55:39.593Z,12.82
2017-09-30T17:58:15.584Z,11.38
2017-09-30T18:00:50.582Z,10.82
2017-09-30T18:03:22.094Z,10.88
2017-09-30T18:05:52.855Z,12.30
2017-09-30T18:20:31.489Z,11.90
2017-09-30T18:23:13.581Z,11.02
2017-09-30T18:25:43.494Z,11.07
2017-09-30T18:28:13.483Z,11.33
2017-09-30T18:31:01.311Z,10.55
2017-09-30T18:33:36.187Z,10.10
2017-09-30T18:36:11.080Z,11.77
2017-09-30T18:38:42.941Z,11.70
2017-09-30T18:41:13.637Z,11.95
2017-09-30T18:43:59.124Z,12.05
2017-09-30T18:46:35.185Z,13.50
2017-09-30T19:07:05.427Z,11.93
2017-09-30T19:09:37.867Z,11.45
2017-09-30T19:12:07.712Z,11.27
2017-09-30T19:14:46.298Z,10.15
2017-09-30T19:17:21.448Z,10.73
2017-09-30T19:19:53.827Z,10.07
2017-09-30T19:22:23.997Z,11.65
2017-09-30T19:24:53.714Z,13.00
2017-09-30T19:27:24.308Z,12.50
2017-09-30T19:29:55.548Z,12.68
2017-09-30T19:32:27.710Z,13.00
2017-09-30T19:34:57.468Z,12.05
2017-09-30T19:37:28.391Z,13.23
2017-09-30T19:39:58.835Z,12.20
2017-09-30T19:42:30.391Z,11.65
2017-09-30T19:45:15.910Z,12.02
2017-09-30T19:47:53.202Z,12.05
2017-09-30T19:53:25.218Z,11.70
2017-09-30T19:56:32.132Z,11.50
2017-09-30T19:59:01.816Z,11.80
2017-09-30T20:01:31.972Z,12.40
2017-09-30T20:04:02.878Z,13.33
2017-09-30T20:06:32.441Z,11.73
2017-09-30T20:09:02.123Z,11.40
2017-09-30T20:11:32.929Z,12.25
2017-09-30T20:14:02.865Z,12.37
2017-09-30T20:16:33.335Z,12.35
2017-09-30T20:19:03.883Z,12.60
2017-09-30T20:23:45.219Z,12.30
2017-09-30T20:29:11.721Z,11.90
2017-09-30T20:31:42.029Z,10.80
2017-09-30T20:34:11.656Z,10.70
2017-09-30T20:36:41.803Z,10.63
2017-09-30T20:39:12.197Z,11.23
2017-09-30T20:41:41.830Z,10.85
2017-09-30T20:44:11.420Z,12.02
2017-09-30T20:46:41.030Z,12.30
2017-09-30T20:49:11.098Z,13.25
2017-09-30T20:51:41.747Z,13.80
2017-09-30T20:54:11.328Z,15.00
2017-09-30T20:56:42.025Z,14.90
2017-09-30T20:59:11.665Z,14.30
2017-09-30T21:01:41.274Z,13.70
2017-09-30T21:04:11.220Z,13.45
2017-09-30T21:06:41.719Z,14.85
2017-09-30T21:09:14.360Z,14.47
2017-09-30T21:11:44.553Z,13.73
2017-09-30T21:14:14.309Z,14.27
2017-09-30T21:16:46.298Z,13.40
2017-09-30T21:19:17.856Z,14.77
2017-09-30T21:22:12.468Z,13.82
2017-09-30T21:24:43.235Z,14.50
2017-09-30T21:27:13.059Z,14.60
2017-09-30T21:29:43.630Z,14.43
2017-09-30T21:32:14.828Z,14.87
2017-09-30T21:34:44.646Z,14.33
2017-09-30T21:37:14.198Z,14.40
2017-09-30T21:39:44.479Z,14.07
2017-09-30T21:42:14.163Z,13.00
2017-09-30T21:44:47.443Z,13.85
2017-09-30T21:47:17.262Z,14.38
2017-09-30T21:49:47.100Z,15.30
2017-09-30T21:52:18.449Z,14.60
2017-09-30T21:54:48.526Z,14.40
2017-09-30T21:57:18.476Z,14.07
2017-09-30T21:59:48.317Z,15.73
2017-09-30T22:02:17.892Z,15.40
2017-09-30T22:04:48.027Z,14.45
2017-09-30T22:07:18.711Z,13.13
2017-09-30T22:09:49.089Z,13.50
2017-09-30T22:12:21.581Z,14.85
2017-09-30T22:15:00.619Z,13.13
2017-09-30T22:17:32.231Z,14.35
2017-09-30T22:20:12.056Z,13.50
2017-09-30T22:22:42.263Z,13.23
2017-09-30T22:25:12.102Z,13.40
2017-09-30T22:27:42.187Z,13.25
2017-09-30T22:30:13.170Z,14.00
2017-09-30T22:32:43.270Z,13.20
2017-09-30T22:35:16.897Z,14.20
2017-09-30T22:37:47.066Z,13.62
2017-09-30T22:40:18.192Z,13.43
2017-09-30T22:42:48.338Z,13.70
2017-09-30T22:46:10.081Z,14.50
2017-09-30T22:48:40.366Z,13.00
2017-09-30T22:51:10.446Z,12.35
2017-09-30T22:53:40.754Z,12.88
2017-09-30T22:56:11.049Z,11.98
2017-09-30T22:58:40.615Z,13.38
2017-09-30T23:01:10.236Z,13.20
2017-09-30T23:03:39.919Z,13.23
2017-09-30T23:06:10.804Z,13.15
2017-09-30T23:08:40.407Z,12.48
2017-09-30T23:11:10.039Z,12.88
2017-09-30T23:13:39.626Z,12.07
2017-09-30T23:16:09.244Z,12.57
2017-09-30T23:18:39.419Z,11.40
2017-09-30T23:21:09.179Z,11.68
2017-09-30T23:23:40.501Z,11.60
2017-09-30T23:26:11.055Z,12.48
2017-09-30T23:28:40.733Z,11.82
2017-09-30T23:31:10.551Z,12.40
2017-09-30T23:33:40.122Z,12.00
2017-09-30T23:36:10.106Z,11.63
2017-09-30T23:38:40.679Z,12.02
2017-09-30T23:41:10.690Z,12.77
2017-09-30T23:43:40.672Z,13.70
2017-09-30T23:46:10.747Z,15.38
2017-09-30T23:48:40.799Z,14.07
2017-09-30T23:51:11.054Z,14.85
2017-09-30T23:53:40.816Z,14.20
2017-09-30T23:56:10.391Z,12.77
2017-09-30T23:58:40.298Z,13.45
